sensor_id;sensor_type;location;lat;lon;timestamp;P1;durP1;ratioP1;P2;durP2;ratioP2
9524;SDS011;15940;48.734;9.112;2023-03-21T00:00:37;3.00;;;2.70;;
9524;SDS011;15940;48.734;9.112;2023-03-21T00:03:05;2.30;;;2.10;;
9524;SDS011;15940;48.734;9.112;2023-03-21T00:05:32;3.03;;;2.63;;
9524;SDS011;15940;48.734;9.112;2023-03-21T00:08:00;2.50;;;2.30;;
9524;SDS011;15940;48.734;9.112;2023-03-21T00:10:27;5.90;;;2.90;;
9524;SDS011;15940;48.734;9.112;2023-03-21T00:12:54;2.43;;;2.27;;
9524;SDS011;15940;48.734;9.112;2023-03-21T00:15:24;2.30;;;2.20;;
9524;SDS011;15940;48.734;9.112;2023-03-21T00:17:53;2.70;;;2.10;;
9524;SDS011;15940;48.734;9.112;2023-03-21T00:20:22;2.37;;;2.20;;
9524;SDS011;15940;48.734;9.112;2023-03-21T00:22:49;2.80;;;2.50;;
9524;SDS011;15940;48.734;9.112;2023-03-21T00:25:17;2.43;;;2.23;;
9524;SDS011;15940;48.734;9.112;2023-03-21T00:27:44;2.70;;;2.50;;
9524;SDS011;15940;48.734;9.112;2023-03-21T00:30:11;3.23;;;2.50;;
9524;SDS011;15940;48.734;9.112;2023-03-21T00:32:40;2.47;;;2.27;;
9524;SDS011;15940;48.734;9.112;2023-03-21T00:35:07;2.70;;;2.33;;
9524;SDS011;15940;48.734;9.112;2023-03-21T00:37:34;2.97;;;2.20;;
9524;SDS011;15940;48.734;9.112;2023-03-21T00:40:01;2.20;;;2.10;;
9524;SDS011;15940;48.734;9.112;2023-03-21T00:42:33;2.23;;;2.10;;
9524;SDS011;15940;48.734;9.112;2023-03-21T00:45:00;2.87;;;2.53;;
9524;SDS011;15940;48.734;9.112;2023-03-21T00:47:27;2.27;;;2.07;;
9524;SDS011;15940;48.734;9.112;2023-03-21T00:49:55;3.50;;;2.43;;
9524;SDS011;15940;48.734;9.112;2023-03-21T00:52:22;2.70;;;2.30;;
9524;SDS011;15940;48.734;9.112;2023-03-21T00:54:49;3.37;;;2.30;;
9524;SDS011;15940;48.734;9.112;2023-03-21T00:57:16;2.37;;;2.17;;
9524;SDS011;15940;48.734;9.112;2023-03-21T00:59:43;2.60;;;2.40;;
9524;SDS011;15940;48.734;9.112;2023-03-21T01:02:10;2.30;;;2.20;;
9524;SDS011;15940;48.734;9.112;2023-03-21T01:04:50;2.47;;;2.20;;
9524;SDS011;15940;48.734;9.112;2023-03-21T01:07:19;2.50;;;2.30;;
9524;SDS011;15940;48.734;9.112;2023-03-21T01:09:46;2.50;;;2.30;;
9524;SDS011;15940;48.734;9.112;2023-03-21T01:12:14;2.40;;;2.20;;
9524;SDS011;15940;48.734;9.112;2023-03-21T01:14:41;2.60;;;2.40;;
9524;SDS011;15940;48.734;9.112;2023-03-21T01:17:08;2.60;;;2.10;;
9524;SDS011;15940;48.734;9.112;2023-03-21T01:19:35;3.83;;;2.40;;
9524;SDS011;15940;48.734;9.112;2023-03-21T01:22:02;2.27;;;2.07;;
9524;SDS011;15940;48.734;9.112;2023-03-21T01:24:31;2.90;;;2.50;;
9524;SDS011;15940;48.734;9.112;2023-03-21T01:26:58;2.30;;;2.10;;
9524;SDS011;15940;48.734;9.112;2023-03-21T01:29:27;3.03;;;2.73;;
9524;SDS011;15940;48.734;9.112;2023-03-21T01:31:54;2.47;;;2.27;;
9524;SDS011;15940;48.734;9.112;2023-03-21T01:34:21;2.27;;;2.07;;
9524;SDS011;15940;48.734;9.112;2023-03-21T01:36:48;2.27;;;2.13;;
9524;SDS011;15940;48.734;9.112;2023-03-21T01:39:15;2.10;;;2.00;;
9524;SDS011;15940;48.734;9.112;2023-03-21T01:41:43;2.43;;;2.23;;
9524;SDS011;15940;48.734;9.112;2023-03-21T01:44:13;2.70;;;2.50;;
9524;SDS011;15940;48.734;9.112;2023-03-21T01:46:42;2.20;;;2.10;;
9524;SDS011;15940;48.734;9.112;2023-03-21T01:49:14;3.70;;;2.20;;
9524;SDS011;15940;48.734;9.112;2023-03-21T01:51:49;1.90;;;1.80;;
9524;SDS011;15940;48.734;9.112;2023-03-21T01:54:21;2.50;;;2.30;;
9524;SDS011;15940;48.734;9.112;2023-03-21T01:56:55;2.97;;;2.37;;
9524;SDS011;15940;48.734;9.112;2023-03-21T01:59:26;3.00;;;2.57;;
9524;SDS011;15940;48.734;9.112;2023-03-21T02:02:02;2.77;;;2.40;;
9524;SDS011;15940;48.734;9.112;2023-03-21T02:04:33;2.60;;;2.40;;
9524;SDS011;15940;48.734;9.112;2023-03-21T02:07:03;2.53;;;2.33;;
9524;SDS011;15940;48.734;9.112;2023-03-21T02:09:35;2.50;;;2.30;;
9524;SDS011;15940;48.734;9.112;2023-03-21T02:12:07;2.63;;;2.43;;
9524;SDS011;15940;48.734;9.112;2023-03-21T02:14:34;2.63;;;2.30;;
9524;SDS011;15940;48.734;9.112;2023-03-21T02:17:05;4.43;;;2.30;;
9524;SDS011;15940;48.734;9.112;2023-03-21T02:19:49;2.70;;;2.27;;
9524;SDS011;15940;48.734;9.112;2023-03-21T02:23:35;2.93;;;2.10;;
9524;SDS011;15940;48.734;9.112;2023-03-21T02:26:57;3.00;;;2.30;;
9524;SDS011;15940;48.734;9.112;2023-03-21T02:29:51;2.53;;;2.30;;
9524;SDS011;15940;48.734;9.112;2023-03-21T02:36:11;2.40;;;2.20;;
9524;SDS011;15940;48.734;9.112;2023-03-21T02:38:53;2.47;;;2.27;;
9524;SDS011;15940;48.734;9.112;2023-03-21T02:41:28;2.90;;;2.60;;
9524;SDS011;15940;48.734;9.112;2023-03-21T02:44:06;2.70;;;2.50;;
9524;SDS011;15940;48.734;9.112;2023-03-21T02:46:41;2.50;;;2.30;;
9524;SDS011;15940;48.734;9.112;2023-03-21T02:49:15;2.87;;;2.60;;
9524;SDS011;15940;48.734;9.112;2023-03-21T02:51:48;2.70;;;2.33;;
9524;SDS011;15940;48.734;9.112;2023-03-21T02:54:18;2.97;;;2.67;;
9524;SDS011;15940;48.734;9.112;2023-03-21T02:56:50;2.90;;;2.70;;
9524;SDS011;15940;48.734;9.112;2023-03-21T02:59:19;3.00;;;2.70;;
9524;SDS011;15940;48.734;9.112;2023-03-21T03:01:49;4.60;;;2.90;;
9524;SDS011;15940;48.734;9.112;2023-03-21T03:04:18;2.80;;;2.50;;
9524;SDS011;15940;48.734;9.112;2023-03-21T03:06:52;2.90;;;2.70;;
9524;SDS011;15940;48.734;9.112;2023-03-21T03:09:41;2.60;;;2.40;;
9524;SDS011;15940;48.734;9.112;2023-03-21T03:12:26;2.90;;;2.60;;
9524;SDS011;15940;48.734;9.112;2023-03-21T03:15:05;4.47;;;2.57;;
9524;SDS011;15940;48.734;9.112;2023-03-21T03:17:50;3.20;;;2.37;;
9524;SDS011;15940;48.734;9.112;2023-03-21T03:20:31;5.20;;;2.43;;
9524;SDS011;15940;48.734;9.112;2023-03-21T03:23:12;2.67;;;2.47;;
9524;SDS011;15940;48.734;9.112;2023-03-21T03:25:48;2.80;;;2.60;;
9524;SDS011;15940;48.734;9.112;2023-03-21T03:28:23;2.90;;;2.50;;
9524;SDS011;15940;48.734;9.112;2023-03-21T03:30:54;3.30;;;2.53;;
9524;SDS011;15940;48.734;9.112;2023-03-21T03:33:24;2.80;;;2.43;;
9524;SDS011;15940;48.734;9.112;2023-03-21T03:35:54;2.60;;;2.40;;
9524;SDS011;15940;48.734;9.112;2023-03-21T03:38:24;2.47;;;2.37;;
9524;SDS011;15940;48.734;9.112;2023-03-21T03:40:54;3.70;;;2.60;;
9524;SDS011;15940;48.734;9.112;2023-03-21T03:43:29;2.50;;;2.30;;
9524;SDS011;15940;48.734;9.112;2023-03-21T03:46:05;2.57;;;2.37;;
9524;SDS011;15940;48.734;9.112;2023-03-21T03:48:39;2.90;;;2.40;;
9524;SDS011;15940;48.734;9.112;2023-03-21T03:51:13;3.30;;;2.50;;
9524;SDS011;15940;48.734;9.112;2023-03-21T03:53:47;2.67;;;2.30;;
9524;SDS011;15940;48.734;9.112;2023-03-21T03:56:20;2.80;;;2.40;;
9524;SDS011;15940;48.734;9.112;2023-03-21T03:58:49;2.90;;;2.27;;
9524;SDS011;15940;48.734;9.112;2023-03-21T04:01:16;3.70;;;2.70;;
9524;SDS011;15940;48.734;9.112;2023-03-21T04:03:44;3.53;;;2.50;;
9524;SDS011;15940;48.734;9.112;2023-03-21T04:06:14;2.40;;;2.10;;
9524;SDS011;15940;48.734;9.112;2023-03-21T04:08:42;2.50;;;2.30;;
9524;SDS011;15940;48.734;9.112;2023-03-21T04:11:09;3.00;;;2.53;;
9524;SDS011;15940;48.734;9.112;2023-03-21T04:13:39;2.97;;;2.67;;
9524;SDS011;15940;48.734;9.112;2023-03-21T04:16:07;2.87;;;2.43;;
9524;SDS011;15940;48.734;9.112;2023-03-21T04:18:35;2.50;;;2.30;;
9524;SDS011;15940;48.734;9.112;2023-03-21T04:21:06;2.60;;;2.40;;
9524;SDS011;15940;48.734;9.112;2023-03-21T04:23:34;3.03;;;2.30;;
9524;SDS011;15940;48.734;9.112;2023-03-21T04:26:02;3.43;;;2.33;;
9524;SDS011;15940;48.734;9.112;2023-03-21T04:28:30;3.00;;;2.43;;
9524;SDS011;15940;48.734;9.112;2023-03-21T04:31:01;2.50;;;2.30;;
9524;SDS011;15940;48.734;9.112;2023-03-21T04:33:31;3.83;;;3.00;;
9524;SDS011;15940;48.734;9.112;2023-03-21T04:36:02;4.47;;;2.73;;
9524;SDS011;15940;48.734;9.112;2023-03-21T04:38:31;2.87;;;2.53;;
9524;SDS011;15940;48.734;9.112;2023-03-21T04:40:58;4.07;;;2.60;;
9524;SDS011;15940;48.734;9.112;2023-03-21T04:43:25;2.60;;;2.40;;
9524;SDS011;15940;48.734;9.112;2023-03-21T04:45:53;2.80;;;2.60;;
9524;SDS011;15940;48.734;9.112;2023-03-21T04:48:22;2.77;;;2.57;;
9524;SDS011;15940;48.734;9.112;2023-03-21T04:50:49;2.90;;;2.60;;
9524;SDS011;15940;48.734;9.112;2023-03-21T04:53:17;3.93;;;2.47;;
9524;SDS011;15940;48.734;9.112;2023-03-21T04:55:44;2.50;;;2.30;;
9524;SDS011;15940;48.734;9.112;2023-03-21T04:58:11;2.70;;;2.50;;
9524;SDS011;15940;48.734;9.112;2023-03-21T05:00:38;3.03;;;2.60;;
9524;SDS011;15940;48.734;9.112;2023-03-21T05:03:05;3.07;;;2.63;;
9524;SDS011;15940;48.734;9.112;2023-03-21T05:05:35;2.87;;;2.43;;
9524;SDS011;15940;48.734;9.112;2023-03-21T05:08:02;3.83;;;2.90;;
9524;SDS011;15940;48.734;9.112;2023-03-21T05:10:31;2.80;;;2.60;;
9524;SDS011;15940;48.734;9.112;2023-03-21T05:12:58;4.30;;;2.80;;
9524;SDS011;15940;48.734;9.112;2023-03-21T05:15:25;4.40;;;3.13;;
9524;SDS011;15940;48.734;9.112;2023-03-21T05:17:52;3.13;;;2.83;;
9524;SDS011;15940;48.734;9.112;2023-03-21T05:20:19;4.80;;;3.07;;
9524;SDS011;15940;48.734;9.112;2023-03-21T05:22:47;4.37;;;2.80;;
9524;SDS011;15940;48.734;9.112;2023-03-21T05:25:16;4.80;;;3.57;;
9524;SDS011;15940;48.734;9.112;2023-03-21T05:27:58;3.27;;;2.60;;
9524;SDS011;15940;48.734;9.112;2023-03-21T05:30:26;3.67;;;2.93;;
9524;SDS011;15940;48.734;9.112;2023-03-21T05:32:53;3.23;;;2.93;;
9524;SDS011;15940;48.734;9.112;2023-03-21T05:35:20;6.30;;;3.27;;
9524;SDS011;15940;48.734;9.112;2023-03-21T05:37:49;2.80;;;2.50;;
9524;SDS011;15940;48.734;9.112;2023-03-21T05:40:17;2.83;;;2.63;;
9524;SDS011;15940;48.734;9.112;2023-03-21T05:42:44;6.70;;;2.87;;
9524;SDS011;15940;48.734;9.112;2023-03-21T05:45:12;3.37;;;3.10;;
9524;SDS011;15940;48.734;9.112;2023-03-21T05:47:39;3.10;;;2.80;;
9524;SDS011;15940;48.734;9.112;2023-03-21T05:50:06;3.23;;;2.93;;
9524;SDS011;15940;48.734;9.112;2023-03-21T05:52:35;3.20;;;2.90;;
9524;SDS011;15940;48.734;9.112;2023-03-21T05:55:04;4.70;;;3.00;;
9524;SDS011;15940;48.734;9.112;2023-03-21T05:57:32;3.90;;;3.17;;
9524;SDS011;15940;48.734;9.112;2023-03-21T06:00:03;4.37;;;2.90;;
9524;SDS011;15940;48.734;9.112;2023-03-21T06:02:32;3.10;;;2.80;;
9524;SDS011;15940;48.734;9.112;2023-03-21T06:04:59;3.00;;;2.50;;
9524;SDS011;15940;48.734;9.112;2023-03-21T06:07:26;3.20;;;2.90;;
9524;SDS011;15940;48.734;9.112;2023-03-21T06:09:53;3.87;;;2.60;;
9524;SDS011;15940;48.734;9.112;2023-03-21T06:12:21;3.00;;;2.80;;
9524;SDS011;15940;48.734;9.112;2023-03-21T06:14:48;3.77;;;3.27;;
9524;SDS011;15940;48.734;9.112;2023-03-21T06:17:15;3.40;;;3.10;;
9524;SDS011;15940;48.734;9.112;2023-03-21T06:19:42;3.13;;;2.83;;
9524;SDS011;15940;48.734;9.112;2023-03-21T06:22:09;3.43;;;3.03;;
9524;SDS011;15940;48.734;9.112;2023-03-21T06:24:36;5.03;;;2.60;;
9524;SDS011;15940;48.734;9.112;2023-03-21T06:27:03;2.67;;;2.47;;
9524;SDS011;15940;48.734;9.112;2023-03-21T06:29:32;2.83;;;2.63;;
9524;SDS011;15940;48.734;9.112;2023-03-21T06:31:59;3.27;;;2.93;;
9524;SDS011;15940;48.734;9.112;2023-03-21T06:34:26;3.83;;;3.30;;
9524;SDS011;15940;48.734;9.112;2023-03-21T06:36:53;3.50;;;3.20;;
9524;SDS011;15940;48.734;9.112;2023-03-21T06:39:20;3.87;;;3.40;;
9524;SDS011;15940;48.734;9.112;2023-03-21T06:41:47;8.50;;;3.73;;
9524;SDS011;15940;48.734;9.112;2023-03-21T06:44:14;4.77;;;3.90;;
9524;SDS011;15940;48.734;9.112;2023-03-21T06:46:42;4.30;;;3.17;;
9524;SDS011;15940;48.734;9.112;2023-03-21T06:49:09;3.63;;;3.23;;
9524;SDS011;15940;48.734;9.112;2023-03-21T06:51:36;3.50;;;3.20;;
9524;SDS011;15940;48.734;9.112;2023-03-21T06:54:03;4.73;;;3.47;;
9524;SDS011;15940;48.734;9.112;2023-03-21T06:56:30;2.97;;;2.70;;
9524;SDS011;15940;48.734;9.112;2023-03-21T06:58:57;5.77;;;3.10;;
9524;SDS011;15940;48.734;9.112;2023-03-21T07:01:24;3.37;;;2.67;;
9524;SDS011;15940;48.734;9.112;2023-03-21T07:03:53;3.90;;;3.00;;
9524;SDS011;15940;48.734;9.112;2023-03-21T07:06:21;3.27;;;2.70;;
9524;SDS011;15940;48.734;9.112;2023-03-21T07:08:50;3.10;;;2.50;;
9524;SDS011;15940;48.734;9.112;2023-03-21T07:11:18;3.27;;;2.67;;
9524;SDS011;15940;48.734;9.112;2023-03-21T07:13:45;2.80;;;2.60;;
9524;SDS011;15940;48.734;9.112;2023-03-21T07:16:13;4.07;;;2.90;;
9524;SDS011;15940;48.734;9.112;2023-03-21T07:18:41;2.60;;;2.40;;
9524;SDS011;15940;48.734;9.112;2023-03-21T07:21:09;3.10;;;2.13;;
9524;SDS011;15940;48.734;9.112;2023-03-21T07:23:36;2.13;;;2.03;;
9524;SDS011;15940;48.734;9.112;2023-03-21T07:26:04;2.50;;;2.30;;
9524;SDS011;15940;48.734;9.112;2023-03-21T07:28:31;2.13;;;1.97;;
9524;SDS011;15940;48.734;9.112;2023-03-21T07:30:59;5.30;;;2.50;;
9524;SDS011;15940;48.734;9.112;2023-03-21T07:33:28;3.57;;;2.10;;
9524;SDS011;15940;48.734;9.112;2023-03-21T07:35:56;3.83;;;2.13;;
9524;SDS011;15940;48.734;9.112;2023-03-21T07:38:25;2.27;;;2.07;;
9524;SDS011;15940;48.734;9.112;2023-03-21T07:40:54;2.60;;;2.00;;
9524;SDS011;15940;48.734;9.112;2023-03-21T07:43:23;2.20;;;2.03;;
9524;SDS011;15940;48.734;9.112;2023-03-21T07:45:50;2.33;;;2.13;;
9524;SDS011;15940;48.734;9.112;2023-03-21T07:48:21;2.13;;;2.00;;
9524;SDS011;15940;48.734;9.112;2023-03-21T07:50:48;3.03;;;1.87;;
9524;SDS011;15940;48.734;9.112;2023-03-21T07:53:15;2.60;;;2.00;;
9524;SDS011;15940;48.734;9.112;2023-03-21T07:55:44;2.37;;;2.17;;
9524;SDS011;15940;48.734;9.112;2023-03-21T07:58:16;2.27;;;2.00;;
9524;SDS011;15940;48.734;9.112;2023-03-21T08:00:43;1.63;;;1.53;;
9524;SDS011;15940;48.734;9.112;2023-03-21T08:03:10;2.20;;;2.00;;
9524;SDS011;15940;48.734;9.112;2023-03-21T08:05:37;2.43;;;1.80;;
9524;SDS011;15940;48.734;9.112;2023-03-21T08:08:05;3.40;;;2.37;;
9524;SDS011;15940;48.734;9.112;2023-03-21T08:10:33;3.30;;;2.07;;
9524;SDS011;15940;48.734;9.112;2023-03-21T08:13:02;2.70;;;2.10;;
9524;SDS011;15940;48.734;9.112;2023-03-21T08:15:30;2.43;;;2.20;;
9524;SDS011;15940;48.734;9.112;2023-03-21T08:17:57;2.40;;;2.20;;
9524;SDS011;15940;48.734;9.112;2023-03-21T08:20:24;2.03;;;1.90;;
9524;SDS011;15940;48.734;9.112;2023-03-21T08:22:51;3.70;;;2.00;;
9524;SDS011;15940;48.734;9.112;2023-03-21T08:25:19;2.60;;;1.90;;
9524;SDS011;15940;48.734;9.112;2023-03-21T08:27:47;2.00;;;1.80;;
9524;SDS011;15940;48.734;9.112;2023-03-21T08:30:17;2.23;;;1.97;;
9524;SDS011;15940;48.734;9.112;2023-03-21T08:32:48;3.13;;;1.73;;
9524;SDS011;15940;48.734;9.112;2023-03-21T08:35:15;2.83;;;1.93;;
9524;SDS011;15940;48.734;9.112;2023-03-21T08:37:44;1.70;;;1.60;;
9524;SDS011;15940;48.734;9.112;2023-03-21T08:40:12;3.63;;;1.90;;
9524;SDS011;15940;48.734;9.112;2023-03-21T08:42:42;2.03;;;1.80;;
9524;SDS011;15940;48.734;9.112;2023-03-21T08:45:10;3.03;;;1.93;;
9524;SDS011;15940;48.734;9.112;2023-03-21T08:47:40;1.80;;;1.70;;
9524;SDS011;15940;48.734;9.112;2023-03-21T08:50:15;1.57;;;1.47;;
9524;SDS011;15940;48.734;9.112;2023-03-21T08:52:43;2.20;;;1.57;;
9524;SDS011;15940;48.734;9.112;2023-03-21T08:55:11;3.53;;;1.67;;
9524;SDS011;15940;48.734;9.112;2023-03-21T08:57:39;2.47;;;1.77;;
9524;SDS011;15940;48.734;9.112;2023-03-21T09:00:07;5.27;;;1.70;;
9524;SDS011;15940;48.734;9.112;2023-03-21T09:02:39;1.93;;;1.80;;
9524;SDS011;15940;48.734;9.112;2023-03-21T09:05:08;2.23;;;2.03;;
9524;SDS011;15940;48.734;9.112;2023-03-21T09:07:37;1.93;;;1.73;;
9524;SDS011;15940;48.734;9.112;2023-03-21T09:10:06;2.10;;;1.70;;
9524;SDS011;15940;48.734;9.112;2023-03-21T09:12:35;2.57;;;1.50;;
9524;SDS011;15940;48.734;9.112;2023-03-21T09:15:03;2.30;;;1.73;;
9524;SDS011;15940;48.734;9.112;2023-03-21T09:17:31;1.50;;;1.40;;
9524;SDS011;15940;48.734;9.112;2023-03-21T09:19:59;1.50;;;1.40;;
9524;SDS011;15940;48.734;9.112;2023-03-21T09:22:35;1.80;;;1.57;;
9524;SDS011;15940;48.734;9.112;2023-03-21T09:25:02;1.73;;;1.63;;
9524;SDS011;15940;48.734;9.112;2023-03-21T09:30:00;2.17;;;1.80;;
9524;SDS011;15940;48.734;9.112;2023-03-21T09:32:27;1.27;;;1.20;;
9524;SDS011;15940;48.734;9.112;2023-03-21T09:34:54;1.70;;;1.60;;
9524;SDS011;15940;48.734;9.112;2023-03-21T09:37:21;1.67;;;1.57;;
9524;SDS011;15940;48.734;9.112;2023-03-21T09:39:48;1.80;;;1.50;;
9524;SDS011;15940;48.734;9.112;2023-03-21T09:42:18;1.63;;;1.47;;
9524;SDS011;15940;48.734;9.112;2023-03-21T09:45:06;1.63;;;1.50;;
9524;SDS011;15940;48.734;9.112;2023-03-21T09:47:41;1.70;;;1.60;;
9524;SDS011;15940;48.734;9.112;2023-03-21T09:50:14;1.50;;;1.40;;
9524;SDS011;15940;48.734;9.112;2023-03-21T09:52:46;2.20;;;1.53;;
9524;SDS011;15940;48.734;9.112;2023-03-21T09:55:18;1.57;;;1.47;;
9524;SDS011;15940;48.734;9.112;2023-03-21T09:57:53;1.73;;;1.63;;
9524;SDS011;15940;48.734;9.112;2023-03-21T10:00:31;2.10;;;1.50;;
9524;SDS011;15940;48.734;9.112;2023-03-21T10:03:03;3.23;;;1.40;;
9524;SDS011;15940;48.734;9.112;2023-03-21T10:05:40;1.67;;;1.57;;
9524;SDS011;15940;48.734;9.112;2023-03-21T10:08:11;2.83;;;1.70;;
9524;SDS011;15940;48.734;9.112;2023-03-21T10:10:44;1.93;;;1.40;;
9524;SDS011;15940;48.734;9.112;2023-03-21T10:13:16;1.43;;;1.40;;
9524;SDS011;15940;48.734;9.112;2023-03-21T10:15:48;1.40;;;1.30;;
9524;SDS011;15940;48.734;9.112;2023-03-21T10:18:18;1.30;;;1.20;;
9524;SDS011;15940;48.734;9.112;2023-03-21T10:20:49;1.20;;;1.20;;
9524;SDS011;15940;48.734;9.112;2023-03-21T10:23:18;1.30;;;1.20;;
9524;SDS011;15940;48.734;9.112;2023-03-21T10:25:50;1.00;;;1.00;;
9524;SDS011;15940;48.734;9.112;2023-03-21T10:28:23;1.13;;;1.13;;
9524;SDS011;15940;48.734;9.112;2023-03-21T10:30:54;1.20;;;1.10;;
9524;SDS011;15940;48.734;9.112;2023-03-21T10:33:24;1.00;;;1.00;;
9524;SDS011;15940;48.734;9.112;2023-03-21T10:35:54;1.10;;;1.10;;
9524;SDS011;15940;48.734;9.112;2023-03-21T10:40:53;1.33;;;1.23;;
9524;SDS011;15940;48.734;9.112;2023-03-21T10:43:30;1.40;;;1.30;;
9524;SDS011;15940;48.734;9.112;2023-03-21T10:46:05;1.27;;;1.17;;
9524;SDS011;15940;48.734;9.112;2023-03-21T10:48:36;3.20;;;1.23;;
9524;SDS011;15940;48.734;9.112;2023-03-21T10:51:05;1.03;;;1.03;;
9524;SDS011;15940;48.734;9.112;2023-03-21T10:53:36;1.33;;;1.23;;
9524;SDS011;15940;48.734;9.112;2023-03-21T10:56:08;1.43;;;1.33;;
9524;SDS011;15940;48.734;9.112;2023-03-21T10:58:37;1.27;;;1.17;;
9524;SDS011;15940;48.734;9.112;2023-03-21T11:01:10;1.10;;;1.10;;
9524;SDS011;15940;48.734;9.112;2023-03-21T11:03:45;1.10;;;1.10;;
9524;SDS011;15940;48.734;9.112;2023-03-21T11:06:14;1.77;;;1.40;;
9524;SDS011;15940;48.734;9.112;2023-03-21T11:08:49;2.40;;;0.90;;
9524;SDS011;15940;48.734;9.112;2023-03-21T11:11:23;0.93;;;0.93;;
9524;SDS011;15940;48.734;9.112;2023-03-21T11:13:56;1.50;;;1.30;;
9524;SDS011;15940;48.734;9.112;2023-03-21T11:16:25;0.73;;;0.73;;
9524;SDS011;15940;48.734;9.112;2023-03-21T11:19:02;1.10;;;0.90;;
9524;SDS011;15940;48.734;9.112;2023-03-21T11:21:38;0.73;;;0.73;;
9524;SDS011;15940;48.734;9.112;2023-03-21T11:24:06;1.30;;;1.20;;
9524;SDS011;15940;48.734;9.112;2023-03-21T11:26:41;1.27;;;1.17;;
9524;SDS011;15940;48.734;9.112;2023-03-21T11:29:19;1.30;;;1.20;;
9524;SDS011;15940;48.734;9.112;2023-03-21T11:31:59;1.03;;;1.03;;
9524;SDS011;15940;48.734;9.112;2023-03-21T11:34:38;1.50;;;1.30;;
9524;SDS011;15940;48.734;9.112;2023-03-21T11:37:16;2.37;;;1.30;;
9524;SDS011;15940;48.734;9.112;2023-03-21T11:39:53;1.40;;;1.30;;
9524;SDS011;15940;48.734;9.112;2023-03-21T11:42:27;1.37;;;1.27;;
9524;SDS011;15940;48.734;9.112;2023-03-21T11:45:01;2.67;;;1.63;;
9524;SDS011;15940;48.734;9.112;2023-03-21T11:47:36;2.67;;;1.20;;
9524;SDS011;15940;48.734;9.112;2023-03-21T11:50:08;2.77;;;1.50;;
9524;SDS011;15940;48.734;9.112;2023-03-21T11:53:00;1.67;;;1.47;;
9524;SDS011;15940;48.734;9.112;2023-03-21T11:55:48;1.67;;;1.57;;
9524;SDS011;15940;48.734;9.112;2023-03-21T11:58:42;2.77;;;1.60;;
9524;SDS011;15940;48.734;9.112;2023-03-21T12:01:26;2.10;;;1.90;;
9524;SDS011;15940;48.734;9.112;2023-03-21T12:04:03;1.93;;;1.80;;
9524;SDS011;15940;48.734;9.112;2023-03-21T12:06:44;1.60;;;1.50;;
9524;SDS011;15940;48.734;9.112;2023-03-21T12:09:28;3.07;;;1.87;;
9524;SDS011;15940;48.734;9.112;2023-03-21T12:12:08;2.83;;;1.80;;
9524;SDS011;15940;48.734;9.112;2023-03-21T12:14:55;1.90;;;1.80;;
9524;SDS011;15940;48.734;9.112;2023-03-21T12:17:31;1.77;;;1.67;;
9524;SDS011;15940;48.734;9.112;2023-03-21T12:20:11;1.77;;;1.67;;
9524;SDS011;15940;48.734;9.112;2023-03-21T12:22:51;1.70;;;1.60;;
9524;SDS011;15940;48.734;9.112;2023-03-21T12:25:30;1.70;;;1.60;;
9524;SDS011;15940;48.734;9.112;2023-03-21T12:28:06;2.00;;;1.80;;
9524;SDS011;15940;48.734;9.112;2023-03-21T12:30:50;1.97;;;1.70;;
9524;SDS011;15940;48.734;9.112;2023-03-21T12:36:26;1.60;;;1.50;;
9524;SDS011;15940;48.734;9.112;2023-03-21T12:39:09;1.70;;;1.60;;
9524;SDS011;15940;48.734;9.112;2023-03-21T12:41:52;2.83;;;1.73;;
9524;SDS011;15940;48.734;9.112;2023-03-21T12:44:40;1.50;;;1.40;;
9524;SDS011;15940;48.734;9.112;2023-03-21T12:47:12;1.70;;;1.60;;
9524;SDS011;15940;48.734;9.112;2023-03-21T12:49:45;1.93;;;1.40;;
9524;SDS011;15940;48.734;9.112;2023-03-21T12:52:18;2.83;;;1.30;;
9524;SDS011;15940;48.734;9.112;2023-03-21T12:54:49;2.87;;;1.33;;
9524;SDS011;15940;48.734;9.112;2023-03-21T12:57:20;1.20;;;1.20;;
9524;SDS011;15940;48.734;9.112;2023-03-21T12:59:54;1.53;;;1.43;;
9524;SDS011;15940;48.734;9.112;2023-03-21T13:05:06;5.23;;;1.20;;
9524;SDS011;15940;48.734;9.112;2023-03-21T13:07:44;1.20;;;1.20;;
9524;SDS011;15940;48.734;9.112;2023-03-21T13:10:18;3.17;;;1.13;;
9524;SDS011;15940;48.734;9.112;2023-03-21T13:12:49;1.23;;;1.20;;
9524;SDS011;15940;48.734;9.112;2023-03-21T13:15:34;1.20;;;1.10;;
9524;SDS011;15940;48.734;9.112;2023-03-21T13:18:19;1.13;;;1.07;;
9524;SDS011;15940;48.734;9.112;2023-03-21T13:20:59;1.73;;;1.10;;
9524;SDS011;15940;48.734;9.112;2023-03-21T13:23:34;1.10;;;1.00;;
9524;SDS011;15940;48.734;9.112;2023-03-21T13:26:06;1.87;;;1.10;;
9524;SDS011;15940;48.734;9.112;2023-03-21T13:28:35;1.13;;;1.10;;
9524;SDS011;15940;48.734;9.112;2023-03-21T13:31:14;0.80;;;0.80;;
9524;SDS011;15940;48.734;9.112;2023-03-21T13:33:46;0.90;;;0.90;;
9524;SDS011;15940;48.734;9.112;2023-03-21T13:36:17;1.00;;;1.00;;
9524;SDS011;15940;48.734;9.112;2023-03-21T13:38:50;2.20;;;1.00;;
9524;SDS011;15940;48.734;9.112;2023-03-21T13:41:26;0.73;;;0.73;;
9524;SDS011;15940;48.734;9.112;2023-03-21T13:44:04;1.10;;;1.00;;
9524;SDS011;15940;48.734;9.112;2023-03-21T13:46:44;1.20;;;1.00;;
9524;SDS011;15940;48.734;9.112;2023-03-21T13:49:30;0.90;;;0.83;;
9524;SDS011;15940;48.734;9.112;2023-03-21T13:52:01;2.03;;;0.87;;
9524;SDS011;15940;48.734;9.112;2023-03-21T13:54:52;1.20;;;1.10;;
9524;SDS011;15940;48.734;9.112;2023-03-21T13:57:23;2.33;;;0.80;;
9524;SDS011;15940;48.734;9.112;2023-03-21T14:00:15;1.20;;;1.10;;
9524;SDS011;15940;48.734;9.112;2023-03-21T14:02:49;1.43;;;0.90;;
9524;SDS011;15940;48.734;9.112;2023-03-21T14:05:22;1.50;;;0.90;;
9524;SDS011;15940;48.734;9.112;2023-03-21T14:07:54;1.10;;;1.10;;
9524;SDS011;15940;48.734;9.112;2023-03-21T14:10:27;1.10;;;1.10;;
9524;SDS011;15940;48.734;9.112;2023-03-21T14:12:59;2.13;;;1.10;;
9524;SDS011;15940;48.734;9.112;2023-03-21T14:15:28;1.10;;;1.10;;
9524;SDS011;15940;48.734;9.112;2023-03-21T14:18:04;4.07;;;1.50;;
9524;SDS011;15940;48.734;9.112;2023-03-21T14:20:32;2.17;;;1.50;;
9524;SDS011;15940;48.734;9.112;2023-03-21T14:23:03;1.60;;;1.50;;
9524;SDS011;15940;48.734;9.112;2023-03-21T14:25:32;1.30;;;1.30;;
9524;SDS011;15940;48.734;9.112;2023-03-21T14:28:03;1.47;;;1.40;;
9524;SDS011;15940;48.734;9.112;2023-03-21T14:30:38;1.33;;;1.33;;
9524;SDS011;15940;48.734;9.112;2023-03-21T14:33:11;1.50;;;1.40;;
9524;SDS011;15940;48.734;9.112;2023-03-21T14:35:42;3.10;;;1.80;;
9524;SDS011;15940;48.734;9.112;2023-03-21T14:38:18;1.40;;;1.30;;
9524;SDS011;15940;48.734;9.112;2023-03-21T14:40:48;1.20;;;1.20;;
9524;SDS011;15940;48.734;9.112;2023-03-21T14:43:17;1.73;;;1.50;;
9524;SDS011;15940;48.734;9.112;2023-03-21T14:45:46;3.10;;;1.57;;
9524;SDS011;15940;48.734;9.112;2023-03-21T14:48:17;3.27;;;1.40;;
9524;SDS011;15940;48.734;9.112;2023-03-21T14:50:45;2.00;;;1.90;;
9524;SDS011;15940;48.734;9.112;2023-03-21T14:53:17;1.90;;;1.60;;
9524;SDS011;15940;48.734;9.112;2023-03-21T14:55:49;3.80;;;1.60;;
9524;SDS011;15940;48.734;9.112;2023-03-21T14:58:26;1.53;;;1.43;;
9524;SDS011;15940;48.734;9.112;2023-03-21T15:00:55;1.67;;;1.47;;
9524;SDS011;15940;48.734;9.112;2023-03-21T15:03:28;1.63;;;1.40;;
9524;SDS011;15940;48.734;9.112;2023-03-21T15:05:56;1.53;;;1.43;;
9524;SDS011;15940;48.734;9.112;2023-03-21T15:08:26;1.50;;;1.50;;
9524;SDS011;15940;48.734;9.112;2023-03-21T15:10:55;2.50;;;1.40;;
9524;SDS011;15940;48.734;9.112;2023-03-21T15:13:26;1.20;;;1.10;;
9524;SDS011;15940;48.734;9.112;2023-03-21T15:15:56;2.83;;;1.40;;
9524;SDS011;15940;48.734;9.112;2023-03-21T15:18:26;3.27;;;1.60;;
9524;SDS011;15940;48.734;9.112;2023-03-21T15:20:56;1.20;;;1.20;;
9524;SDS011;15940;48.734;9.112;2023-03-21T15:23:29;1.67;;;1.57;;
9524;SDS011;15940;48.734;9.112;2023-03-21T15:26:00;2.83;;;1.40;;
9524;SDS011;15940;48.734;9.112;2023-03-21T15:28:28;4.53;;;1.60;;
9524;SDS011;15940;48.734;9.112;2023-03-21T15:30:55;2.57;;;1.70;;
9524;SDS011;15940;48.734;9.112;2023-03-21T15:33:23;5.63;;;1.90;;
9524;SDS011;15940;48.734;9.112;2023-03-21T15:35:51;6.60;;;2.30;;
9524;SDS011;15940;48.734;9.112;2023-03-21T15:38:22;3.60;;;1.80;;
9524;SDS011;15940;48.734;9.112;2023-03-21T15:41:13;2.97;;;1.80;;